Main page
METAR-TAF:

METAR-TAF

Airports :

León, Spain

León Airport

latitude: 42-35N, longitude: 005-39W, elevation: 926 m

Current weather observation

The report was made 5 hours and 10 minutes ago, at 21:00 UTC
Calm wind
Temperature 15°C
Humidity 82%
Pressure 1016 hPa
Visibility 10 km or more
Few clouds at a height of 4000 ft

METAR: LELN 282100Z 00000KT 9999 FEW040 15/12 Q1016

Time: 04:10 (02:10 UTC)

Forecast

The report was made 9 hours and 10 minutes ago, at 17:00 UTC
Forecast valid from 28 at 18 UTC to 29 at 03 UTC
Wind 8 kt from the South
Visibility 10 km or more
Scattered clouds at a height of 4000 ft
Probability 30% :
Temporary
from 28 at 18 UTC to 28 at 20 UTC
Wind 15 kt from variable directions with gusts up to 25 kt
Scattered clouds at a height of 4000 ft, Cumulonimbus.
thunderstorm, rain showers

TAF: LELN 281700Z 2818/2903 19008KT 9999 SCT040 PROB30 TEMPO 2818/2820 VRB15G25KT TS SHRA SCT040CB

Weather observations and forecasts of more than 4000 airports (METAR and TAF reports).

The available stations are represented by yellow and red dots on the map.

Hover mouse over dot to see the name of the station.

Then click to see weather observations and forecasts.

To change the map : click on the green buttons with a black cross to zoom in, on the green button with a dash to zoom out, or on the green arrows for adjacent maps.


METAR-TAF: